Time;durP1;ratioP1;P1;durP2;ratioP2;P2;SDS_P1;SDS_P2;PMS_P1;PMS_P2;Temp;Humidity;BMP_temperature;BMP_pressure;BME280_temperature;BME280_humidity;BME280_pressure;Samples;Min_cycle;Max_cycle;Signal;HPM_P1;HPM_P2
2023/07/05 13:00:30;;;;;;;3.42;3.05;;;22.70;87.00;;;;;;5096833;27;21015;-71
2023/07/05 13:03:00;;;;;;;3.03;2.83;;;22.70;88.20;;;;;;5072305;28;20186;-72
2023/07/05 13:05:26;;;;;;;2.58;2.47;;;22.80;87.40;;;;;;5064007;28;20209;-72
2023/07/05 13:07:53;;;;;;;2.25;2.15;;;22.90;88.00;;;;;;5083710;28;20261;-72
2023/07/05 13:10:20;;;;;;;2.08;1.98;;;23.00;87.40;;;;;;5083348;28;20183;-73
2023/07/05 13:12:58;;;;;;;2.17;2.08;;;23.20;86.80;;;;;;5071226;28;20705;-73
2023/07/05 13:15:37;;;;;;;2.30;2.15;;;23.30;86.10;;;;;;5067810;28;20242;-71
2023/07/05 13:18:20;;;;;;;2.20;2.10;;;23.40;85.80;;;;;;5092647;28;20395;-72
2023/07/05 13:20:47;;;;;;;2.90;2.38;;;23.50;86.00;;;;;;5087013;28;20196;-71
2023/07/05 13:23:13;;;;;;;2.25;2.15;;;23.60;86.30;;;;;;5082615;28;20264;-71
2023/07/05 13:25:44;;;;;;;2.17;2.05;;;23.80;86.50;;;;;;5083980;28;20208;-71
2023/07/05 13:28:22;;;;;;;3.63;2.22;;;23.90;85.90;;;;;;5084007;28;20183;-71
2023/07/05 13:31:00;;;;;;;2.15;2.05;;;24.00;85.30;;;;;;5082889;28;20582;-71
2023/07/05 13:33:26;;;;;;;2.25;2.15;;;24.10;85.80;;;;;;5072238;28;20254;-72
2023/07/05 13:35:53;;;;;;;2.35;2.25;;;24.20;85.60;;;;;;5089869;28;20230;-72
2023/07/05 13:38:20;;;;;;;2.50;2.40;;;24.20;85.40;;;;;;5082996;28;20185;-72
2023/07/05 13:40:58;;;;;;;2.10;2.03;;;24.30;85.50;;;;;;5091738;28;20182;-72
2023/07/05 13:43:24;;;;;;;1.92;1.83;;;;;;;;;;5088765;28;20174;-72
2023/07/05 13:45:50;;;;;;;2.15;2.15;;;;;;;;;;5086036;28;20171;-71
2023/07/05 13:48:15;;;;;;;2.38;2.25;;;24.40;86.00;;;;;;5085535;28;20212;-72
2023/07/05 13:50:41;;;;;;;1.92;1.83;;;;;;;;;;5084803;28;21043;-71
2023/07/05 13:53:18;;;;;;;1.50;1.40;;;24.50;85.20;;;;;;5084920;28;20212;-72
2023/07/05 13:55:44;;;;;;;2.05;1.98;;;;;;;;;;5084926;28;20178;-72
2023/07/05 13:58:13;;;;;;;2.88;2.67;;;24.60;84.90;;;;;;5088276;28;20194;-71
2023/07/05 14:00:41;;;;;;;2.10;2.03;;;24.60;85.50;;;;;;5086286;28;20267;-71
2023/07/05 14:03:07;;;;;;;2.42;2.38;;;;;;;;;;5084621;28;20200;-71
2023/07/05 14:05:33;;;;;;;3.08;2.58;;;24.60;85.30;;;;;;5091857;28;20202;-71
2023/07/05 14:08:00;;;;;;;2.20;2.08;;;24.60;85.50;;;;;;5079421;28;20596;-71
2023/07/05 14:10:30;;;;;;;2.63;2.42;;;24.60;85.80;;;;;;5080000;28;20229;-71
2023/07/05 14:12:56;;;;;;;2.50;2.40;;;24.60;85.60;;;;;;5074575;28;20167;-71
2023/07/05 14:15:35;;;;;;;2.70;2.50;;;24.60;86.00;;;;;;5074049;28;20190;-72
2023/07/05 14:18:01;;;;;;;2.40;2.25;;;24.50;86.20;;;;;;5065969;28;20240;-72
2023/07/05 14:20:31;;;;;;;2.65;2.45;;;24.50;85.90;;;;;;5068496;28;20211;-71
2023/07/05 14:23:00;;;;;;;3.05;2.95;;;24.50;85.90;;;;;;5073159;28;20179;-72
2023/07/05 14:25:26;;;;;;;2.22;2.20;;;24.50;85.30;;;;;;5056708;28;20278;-71
2023/07/05 14:27:52;;;;;;;6.93;3.05;;;24.60;85.20;;;;;;5066813;28;20857;-70
2023/07/05 14:30:17;;;;;;;5.18;2.60;;;24.70;85.60;;;;;;5077330;28;20247;-71
2023/07/05 14:32:43;;;;;;;3.80;2.35;;;24.70;85.60;;;;;;5077572;28;20175;-72
2023/07/05 14:35:21;;;;;;;2.75;2.55;;;24.70;85.80;;;;;;5069742;28;20632;-73
2023/07/05 14:37:52;;;;;;;2.70;2.50;;;24.60;85.50;;;;;;5073089;28;20170;-72
2023/07/05 14:40:19;;;;;;;2.50;2.40;;;24.60;85.50;;;;;;5075082;28;20218;-72
2023/07/05 14:42:45;;;;;;;2.53;2.20;;;24.50;85.90;;;;;;5064270;28;20691;-72
2023/07/05 14:45:24;;;;;;;9.02;3.22;;;;;;;;;;5068527;28;20179;-72
2023/07/05 14:47:55;;;;;;;6.32;3.42;;;24.30;86.10;;;;;;5073626;28;20236;-72
2023/07/05 14:50:21;;;;;;;7.80;3.83;;;24.40;85.50;;;;;;5070847;28;20183;-72
2023/07/05 14:52:48;;;;;;;5.90;3.38;;;24.40;85.30;;;;;;5058513;28;20182;-71
2023/07/05 14:55:19;;;;;;;9.52;4.55;;;24.50;85.30;;;;;;5069496;28;20176;-72
2023/07/05 14:57:45;;;;;;;7.50;2.35;;;24.50;85.10;;;;;;5069562;28;20755;-74
2023/07/05 15:00:12;;;;;;;7.18;4.38;;;24.50;85.90;;;;;;5067410;28;20217;-71
2023/07/05 15:02:49;;;;;;;3.95;2.83;;;24.60;86.20;;;;;;5069824;28;20187;-73
2023/07/05 15:05:16;;;;;;;2.55;2.35;;;24.60;85.40;;;;;;5072045;28;20167;-72
2023/07/05 15:07:42;;;;;;;9.40;4.70;;;24.40;85.40;;;;;;5069935;28;20231;-72
2023/07/05 15:10:09;;;;;;;6.65;3.72;;;;;;;;;;5071585;28;20181;-72
2023/07/05 15:12:44;;;;;;;13.52;6.95;;;;;;;;;;5069880;28;20257;-73
2023/07/05 15:15:18;;;;;;;6.32;2.72;;;24.20;86.40;;;;;;5047876;28;20261;-74
2023/07/05 15:17:44;;;;;;;5.75;2.95;;;;;;;;;;5072527;28;20544;-73
2023/07/05 15:20:20;;;;;;;4.03;2.60;;;24.20;88.10;;;;;;5076011;28;20197;-73
2023/07/05 15:22:47;;;;;;;10.55;4.68;;;24.20;88.60;;;;;;5067548;28;20182;-73
2023/07/05 15:25:15;;;;;;;5.38;2.95;;;24.20;88.70;;;;;;5070998;28;20190;-74
2023/07/05 15:27:41;;;;;;;7.38;3.40;;;;;;;;;;5069446;28;20202;-74
2023/07/05 15:30:08;;;;;;;3.35;3.05;;;24.20;88.80;;;;;;5078462;28;20661;-72
2023/07/05 15:32:36;;;;;;;5.70;3.00;;;24.20;90.00;;;;;;5071630;28;20249;-74
2023/07/05 15:35:04;;;;;;;5.72;3.58;;;24.20;89.60;;;;;;5068135;28;20171;-72
2023/07/05 15:37:30;;;;;;;2.50;2.40;;;;;;;;;;5073099;28;20214;-71
2023/07/05 15:39:56;;;;;;;6.88;3.67;;;;;;;;;;5070091;28;20210;-71
2023/07/05 15:42:22;;;;;;;3.00;2.58;;;24.30;89.40;;;;;;5077227;28;20236;-72
2023/07/05 15:44:48;;;;;;;8.05;3.97;;;24.30;89.90;;;;;;5049303;28;20887;-72
2023/07/05 15:47:14;;;;;;;3.20;2.70;;;;;;;;;;5064410;28;20172;-72
2023/07/05 15:49:40;;;;;;;5.80;3.45;;;24.40;88.90;;;;;;5065349;28;20209;-74
2023/07/05 15:52:07;;;;;;;4.15;3.28;;;24.40;89.10;;;;;;5069097;28;20652;-72
2023/07/05 15:54:33;;;;;;;5.47;3.15;;;;;;;;;;5069457;28;20202;-73
2023/07/05 15:57:00;;;;;;;4.88;2.85;;;24.60;88.90;;;;;;5069979;28;20207;-71
2023/07/05 15:59:33;;;;;;;8.88;4.07;;;24.60;88.30;;;;;;5068430;28;20218;-75
2023/07/05 16:02:11;;;;;;;7.10;3.60;;;24.60;88.20;;;;;;5052122;28;20278;-73
2023/07/05 16:04:37;;;;;;;6.07;3.63;;;;;;;;;;5061648;28;20183;-72
2023/07/05 16:07:03;;;;;;;4.22;2.47;;;24.60;88.10;;;;;;5059329;28;20215;-72
2023/07/05 16:09:29;;;;;;;6.70;3.22;;;24.60;87.70;;;;;;5067828;28;20182;-72
2023/07/05 16:11:55;;;;;;;3.97;3.13;;;;;;;;;;5064560;28;20236;-72
2023/07/05 16:14:22;;;;;;;8.00;3.67;;;24.60;87.80;;;;;;5067061;28;20683;-73
2023/07/05 16:16:49;;;;;;;6.68;3.35;;;;;;;;;;5055090;28;20186;-72
2023/07/05 16:19:15;;;;;;;4.65;3.33;;;24.50;86.80;;;;;;5066257;28;20694;-73
2023/07/05 16:21:41;;;;;;;12.82;3.28;;;24.50;86.60;;;;;;5069154;28;20187;-72
2023/07/05 16:24:07;;;;;;;3.15;2.78;;;24.40;86.80;;;;;;5068534;28;20265;-72
2023/07/05 16:26:33;;;;;;;3.80;3.10;;;24.30;87.20;;;;;;5069232;28;20187;-72
2023/07/05 16:28:59;;;;;;;2.33;2.17;;;24.20;87.60;;;;;;5069291;28;20191;-72
2023/07/05 16:31:25;;;;;;;4.85;3.05;;;;;;;;;;5068229;28;20182;-72
2023/07/05 16:33:52;;;;;;;2.95;2.72;;;23.50;89.70;;;;;;5068761;28;20262;-72
2023/07/05 16:36:18;;;;;;;4.13;2.90;;;;;;;;;;5069857;28;20190;-72
2023/07/05 16:38:44;;;;;;;4.55;3.35;;;23.20;91.20;;;;;;5065918;28;20210;-72
2023/07/05 16:41:12;;;;;;;3.65;2.67;;;23.10;91.40;;;;;;5064168;28;20198;-72
2023/07/05 16:43:38;;;;;;;5.85;3.42;;;;;;;;;;5067568;28;20814;-72
2023/07/05 16:46:05;;;;;;;4.40;2.78;;;22.90;91.90;;;;;;5063547;28;20175;-72
2023/07/05 16:48:35;;;;;;;6.22;3.03;;;22.80;92.00;;;;;;5045752;28;20183;-73
2023/07/05 16:51:02;;;;;;;4.15;2.72;;;22.90;91.10;;;;;;5062761;28;20171;-73
2023/07/05 16:53:28;;;;;;;7.75;3.63;;;22.90;90.80;;;;;;5062705;28;20174;-73
2023/07/05 16:56:00;;;;;;;3.53;2.55;;;23.00;90.40;;;;;;5067306;28;20198;-74
2023/07/05 16:58:26;;;;;;;2.10;2.00;;;;;;;;;;5048233;28;20289;-73
2023/07/05 17:01:09;;;;;;;2.58;2.13;;;22.90;90.80;;;;;;5061749;28;20182;-73
2023/07/05 17:03:38;;;;;;;4.03;2.88;;;22.90;90.60;;;;;;5068502;28;20175;-73
2023/07/05 17:06:06;;;;;;;5.10;3.03;;;22.90;91.00;;;;;;5067654;28;20175;-73
2023/07/05 17:08:36;;;;;;;6.32;3.45;;;22.80;90.40;;;;;;5067505;28;20178;-73
2023/07/05 17:11:03;;;;;;;4.95;3.50;;;22.80;90.00;;;;;;5070579;28;20262;-73
2023/07/05 17:13:29;;;;;;;3.50;2.47;;;22.90;90.10;;;;;;5064913;28;20261;-73
2023/07/05 17:16:00;;;;;;;3.63;2.88;;;22.70;90.70;;;;;;5062245;28;20179;-70
2023/07/05 17:18:27;;;;;;;3.05;2.40;;;22.80;90.40;;;;;;5050166;28;20601;-73
2023/07/05 17:20:53;;;;;;;2.42;2.22;;;;;;;;;;5068319;28;20264;-72
2023/07/05 17:23:19;;;;;;;3.08;2.50;;;22.90;90.60;;;;;;5050874;28;20679;-72
2023/07/05 17:25:59;;;;;;;5.18;2.67;;;22.80;90.80;;;;;;5068605;28;20320;-74
2023/07/05 17:28:26;;;;;;;2.60;2.40;;;22.80;90.10;;;;;;5068303;28;20320;-73
2023/07/05 17:30:52;;;;;;;5.50;2.45;;;22.70;90.90;;;;;;5045912;28;20179;-73
2023/07/05 17:33:18;;;;;;;5.40;3.22;;;22.70;90.90;;;;;;5066597;28;20194;-77
2023/07/05 17:35:49;;;;;;;3.40;2.40;;;;;;;;;;5067482;28;20179;-74
2023/07/05 17:38:15;;;;;;;4.05;2.70;;;;;;;;;;5067939;28;20262;-74
2023/07/05 17:40:48;;;;;;;15.40;5.03;;;22.80;89.80;;;;;;5065237;28;20710;-73
2023/07/05 17:43:15;;;;;;;5.10;2.78;;;22.90;89.80;;;;;;5079188;28;20183;-76
2023/07/05 17:45:41;;;;;;;5.82;3.45;;;22.90;89.40;;;;;;5068127;28;20183;-73
2023/07/05 17:48:26;;;;;;;4.60;3.20;;;22.90;89.30;;;;;;5070647;28;20586;-76
2023/07/05 17:50:52;;;;;;;5.35;3.25;;;;;;;;;;5067700;28;20183;-75
2023/07/05 17:53:18;;;;;;;7.85;3.85;;;;;;;;;;5071152;28;20187;-75
2023/07/05 17:55:51;;;;;;;11.77;5.00;;;22.70;90.40;;;;;;5072782;28;20174;-75
2023/07/05 17:58:17;;;;;;;9.05;4.60;;;;;;;;;;5067668;28;20176;-75
2023/07/05 18:00:46;;;;;;;7.95;4.82;;;;;;;;;;5071061;28;20766;-74
2023/07/05 18:03:12;;;;;;;4.82;3.10;;;;;;;;;;5069376;28;20183;-74
2023/07/05 18:05:38;;;;;;;14.90;6.65;;;;;;;;;;5071571;28;20183;-74
2023/07/05 18:08:04;;;;;;;7.55;3.90;;;;;;;;;;5070114;28;21643;-74
2023/07/05 18:10:30;;;;;;;3.60;2.60;;;;;;;;;;5068405;28;20187;-75
2023/07/05 18:12:56;;;;;;;2.25;2.15;;;;;;;;;;5071510;28;20171;-74
2023/07/05 18:15:23;;;;;;;2.42;2.28;;;22.40;91.90;;;;;;5054350;28;20183;-74
2023/07/05 18:17:49;;;;;;;3.75;2.63;;;;;;;;;;5071497;28;20182;-74
2023/07/05 18:20:15;;;;;;;6.00;3.00;;;;;;;;;;5072707;28;20238;-74
2023/07/05 18:22:41;;;;;;;8.55;3.85;;;22.40;91.80;;;;;;5071974;28;20187;-75
2023/07/05 18:25:08;;;;;;;3.38;2.75;;;22.20;92.70;;;;;;5072319;28;20664;-75
2023/07/05 18:27:33;;;;;;;4.18;2.75;;;22.20;92.80;;;;;;5067946;28;20179;-74
2023/07/05 18:29:59;;;;;;;6.32;2.72;;;22.10;92.60;;;;;;5071583;28;20181;-74
2023/07/05 18:32:25;;;;;;;2.15;1.95;;;;;;;;;;5073531;28;20795;-75
2023/07/05 18:34:51;;;;;;;3.92;3.10;;;22.10;92.30;;;;;;5053753;28;20572;-78
2023/07/05 18:37:17;;;;;;;5.75;2.25;;;;;;;;;;5070743;28;20673;-75
2023/07/05 18:39:43;;;;;;;5.85;2.97;;;;;;;;;;5072658;28;20234;-77
2023/07/05 18:42:10;;;;;;;3.00;2.35;;;;;;;;;;5076771;28;20187;-78
2023/07/05 18:44:36;;;;;;;6.93;2.65;;;;;;;;;;5075005;28;20230;-78
2023/07/05 18:47:02;;;;;;;4.47;2.47;;;21.90;92.30;;;;;;5060539;28;20254;-79
2023/07/05 18:49:29;;;;;;;2.47;2.28;;;;;;;;;;5078531;28;20183;-77
2023/07/05 18:51:55;;;;;;;2.42;2.22;;;21.80;91.70;;;;;;5054636;28;20266;-77
2023/07/05 18:54:21;;;;;;;11.02;4.88;;;;;;;;;;5073496;28;20217;-78
2023/07/05 18:56:47;;;;;;;6.70;3.83;;;;;;;;;;5070971;28;20629;-79
2023/07/05 18:59:13;;;;;;;40.28;23.30;;;;;;;;;;5076381;28;20304;-76
2023/07/05 19:01:39;;;;;;;4.68;3.13;;;21.60;91.10;;;;;;5056396;28;20190;-80
2023/07/05 19:04:05;;;;;;;4.88;4.43;;;;;;;;;;5079841;28;20175;-79
2023/07/05 19:06:31;;;;;;;58.38;24.70;;;21.70;90.80;;;;;;5058719;28;20264;-78
2023/07/05 19:08:57;;;;;;;3.33;2.38;;;21.80;90.50;;;;;;5078390;28;20179;-78
2023/07/05 19:11:25;;;;;;;8.95;8.10;;;;;;;;;;5072056;28;20668;-78
2023/07/05 19:13:51;;;;;;;92.07;46.58;;;;;;;;;;5071826;28;20171;-76
2023/07/05 19:16:20;;;;;;;155.02;67.93;;;21.60;91.30;;;;;;5073494;28;20649;-79
2023/07/05 19:18:47;;;;;;;173.55;72.35;;;21.60;91.30;;;;;;5072981;28;20245;-77
2023/07/05 19:21:12;;;;;;;4.47;4.00;;;21.70;91.10;;;;;;5079150;28;20171;-77
2023/07/05 19:23:40;;;;;;;178.80;74.45;;;21.50;91.80;;;;;;5052693;28;20174;-78
2023/07/05 19:26:07;;;;;;;167.65;69.28;;;;;;;;;;5082868;28;20187;-76
2023/07/05 19:28:34;;;;;;;171.07;70.85;;;;;;;;;;5067352;28;20601;-77
2023/07/05 19:31:11;;;;;;;13.77;5.65;;;;;;;;;;5068944;28;20183;-74
2023/07/05 19:33:38;;;;;;;9.82;4.22;;;21.50;92.40;;;;;;5067395;28;20191;-75
2023/07/05 19:36:05;;;;;;;6.28;3.33;;;21.60;92.20;;;;;;5076168;28;20175;-74
2023/07/05 19:38:31;;;;;;;5.60;2.55;;;21.40;92.40;;;;;;5066891;28;20183;-76
2023/07/05 19:40:57;;;;;;;3.03;2.65;;;;;;;;;;5069581;28;20182;-77
2023/07/05 19:43:24;;;;;;;5.28;4.38;;;;;;;;;;5053619;28;20183;-77
2023/07/05 19:45:51;;;;;;;10.00;2.55;;;21.50;91.40;;;;;;5051567;28;20175;-77
2023/07/05 19:48:17;;;;;;;7.65;2.83;;;;;;;;;;5051113;28;20187;-77
2023/07/05 19:50:43;;;;;;;5.15;2.30;;;;;;;;;;5069910;28;20190;-76
2023/07/05 19:53:09;;;;;;;3.33;2.22;;;21.30;91.30;;;;;;5053100;28;20213;-76
2023/07/05 19:55:37;;;;;;;4.28;2.28;;;21.40;90.70;;;;;;5069597;28;20183;-77
2023/07/05 19:58:04;;;;;;;3.65;2.42;;;21.40;90.30;;;;;;5066909;28;20190;-75
2023/07/05 20:00:34;;;;;;;2.63;2.00;;;21.50;89.70;;;;;;5069374;28;20217;-73
2023/07/05 20:03:00;;;;;;;4.72;4.22;;;21.60;89.40;;;;;;5068679;28;21339;-73
2023/07/05 20:05:27;;;;;;;1.98;1.88;;;21.60;89.10;;;;;;5066729;28;20189;-74
2023/07/05 20:07:54;;;;;;;2.50;1.92;;;21.50;89.50;;;;;;5067670;28;20651;-74
2023/07/05 20:10:20;;;;;;;2.40;2.03;;;21.60;89.50;;;;;;5069039;28;20190;-73
2023/07/05 20:12:46;;;;;;;5.57;2.67;;;21.60;88.90;;;;;;5049437;28;20191;-75
2023/07/05 20:15:12;;;;;;;3.40;2.20;;;;;;;;;;5069072;28;20187;-74
2023/07/05 20:17:38;;;;;;;3.97;2.50;;;;;;;;;;5069782;28;20187;-73
2023/07/05 20:20:06;;;;;;;2.50;2.10;;;21.60;89.20;;;;;;5068391;28;20210;-74
2023/07/05 20:22:32;;;;;;;2.22;2.13;;;;;;;;;;5069703;28;20194;-72
2023/07/05 20:24:58;;;;;;;5.00;2.65;;;;;;;;;;5070244;28;20182;-75
2023/07/05 20:27:24;;;;;;;7.57;3.35;;;;;;;;;;5061469;28;20644;-73
2023/07/05 20:29:50;;;;;;;12.50;7.05;;;;;;;;;;5068231;28;20183;-73
2023/07/05 20:32:17;;;;;;;7.93;2.65;;;21.70;89.90;;;;;;5068248;28;20179;-73
2023/07/05 20:34:43;;;;;;;6.60;2.92;;;21.70;90.00;;;;;;5050317;28;20553;-74
2023/07/05 20:37:09;;;;;;;2.92;2.72;;;;;;;;;;5069914;28;20332;-73
2023/07/05 20:39:36;;;;;;;14.70;13.18;;;;;;;;;;5067373;28;20207;-74
2023/07/05 20:42:02;;;;;;;33.78;30.48;;;21.60;90.70;;;;;;5068429;28;20171;-74
2023/07/05 20:44:29;;;;;;;48.95;39.38;;;;;;;;;;5068765;28;20289;-74
2023/07/05 20:46:56;;;;;;;92.43;55.67;;;;;;;;;;5068665;28;20251;-74
2023/07/05 20:49:22;;;;;;;143.15;65.32;;;;;;;;;;5074246;28;20324;-75
2023/07/05 20:51:51;;;;;;;168.23;73.03;;;;;;;;;;5067357;28;20181;-74
2023/07/05 20:54:18;;;;;;;171.93;71.55;;;;;;;;;;5052358;28;20197;-75
2023/07/05 20:56:44;;;;;;;174.10;71.55;;;;;;;;;;5069510;28;20281;-74
2023/07/05 20:59:10;;;;;;;169.18;69.18;;;;;;;;;;5071473;28;20202;-74
2023/07/05 21:01:36;;;;;;;175.10;70.80;;;;;;;;;;5066323;28;20775;-75
2023/07/05 21:04:02;;;;;;;173.77;70.30;;;21.00;93.40;;;;;;5069077;28;20298;-74
2023/07/05 21:06:30;;;;;;;169.55;68.53;;;;;;;;;;5069391;28;20638;-74
2023/07/05 21:08:56;;;;;;;177.65;72.35;;;;;;;;;;5068653;28;20179;-75
2023/07/05 21:11:23;;;;;;;172.50;70.68;;;;;;;;;;5071079;28;20187;-74
2023/07/05 21:13:49;;;;;;;172.70;71.30;;;;;;;;;;5067551;28;20301;-73
2023/07/05 21:16:15;;;;;;;167.60;69.10;;;;;;;;;;5068634;28;20179;-73
2023/07/05 21:18:41;;;;;;;174.23;71.28;;;;;;;;;;5057318;28;20293;-73
2023/07/05 21:21:08;;;;;;;166.13;68.00;;;;;;;;;;5072566;28;20186;-73
2023/07/05 21:23:35;;;;;;;172.48;71.00;;;;;;;;;;5072300;28;20182;-74
2023/07/05 21:26:02;;;;;;;166.98;68.22;;;;;;;;;;5073195;28;20179;-73
2023/07/05 21:28:28;;;;;;;169.05;68.53;;;;;;;;;;5073343;28;20186;-73
2023/07/05 21:30:55;;;;;;;168.90;70.10;;;;;;;;;;5073071;28;20179;-73
2023/07/05 21:33:21;;;;;;;169.93;71.00;;;21.40;92.20;;;;;;5073388;28;20649;-73
2023/07/05 21:35:47;;;;;;;174.45;72.30;;;21.40;92.20;;;;;;5071640;28;20186;-72
2023/07/05 21:38:17;;;;;;;170.55;71.93;;;;;;;;;;5076304;28;20183;-73
2023/07/05 21:40:44;;;;;;;152.43;66.00;;;21.40;91.80;;;;;;5072391;28;20230;-72
2023/07/05 21:43:10;;;;;;;1.65;1.60;;;21.40;91.10;;;;;;5070588;28;20188;-72
2023/07/05 21:45:37;;;;;;;1.73;1.65;;;21.40;90.90;;;;;;5075033;28;20175;-73
2023/07/05 21:48:04;;;;;;;1.90;1.65;;;21.40;90.70;;;;;;5071862;28;20675;-72
2023/07/05 21:50:33;;;;;;;3.67;1.83;;;21.30;90.40;;;;;;5076490;28;20227;-73
2023/07/05 21:53:00;;;;;;;2.30;1.88;;;21.30;90.20;;;;;;5077612;28;20175;-73
2023/07/05 21:55:26;;;;;;;3.03;1.80;;;21.30;90.00;;;;;;5074119;28;20175;-73
2023/07/05 21:57:52;;;;;;;4.43;2.25;;;;;;;;;;5071368;28;20186;-73
2023/07/05 22:00:24;;;;;;;4.10;2.22;;;21.20;89.80;;;;;;5073354;28;20236;-73
2023/07/05 22:03:10;;;;;;;3.30;1.45;;;21.20;89.50;;;;;;5077177;28;20240;-73
2023/07/05 22:05:37;;;;;;;1.45;1.35;;;21.20;89.70;;;;;;5072461;28;20244;-72
2023/07/05 22:08:04;;;;;;;1.15;0.90;;;21.10;89.60;;;;;;5055778;28;20580;-73
2023/07/05 22:10:30;;;;;;;1.52;1.42;;;21.10;89.50;;;;;;5075081;28;20186;-72
2023/07/05 22:12:56;;;;;;;1.67;1.65;;;;;;;;;;5071736;28;20198;-72
2023/07/05 22:15:23;;;;;;;1.15;1.13;;;21.00;89.50;;;;;;5071551;28;20179;-72
2023/07/05 22:17:53;;;;;;;1.08;1.05;;;20.90;89.60;;;;;;5071839;28;20265;-73
2023/07/05 22:20:23;;;;;;;7.82;1.48;;;20.90;89.80;;;;;;5072798;28;20253;-73
2023/07/05 22:22:49;;;;;;;0.98;0.98;;;20.90;89.80;;;;;;5072054;28;20687;-73
2023/07/05 22:25:15;;;;;;;2.97;1.20;;;20.90;89.90;;;;;;5075460;28;20193;-72
2023/07/05 22:27:41;;;;;;;1.42;1.33;;;20.90;89.70;;;;;;5053320;28;20175;-72
2023/07/05 22:30:10;;;;;;;1.27;1.27;;;20.90;89.50;;;;;;5072194;28;20183;-72
2023/07/05 22:32:36;;;;;;;1.95;1.23;;;;;;;;;;5071652;28;20178;-73
2023/07/05 22:35:04;;;;;;;3.72;2.15;;;20.90;89.50;;;;;;5072081;28;20175;-72
2023/07/05 22:37:31;;;;;;;3.97;2.78;;;20.80;89.60;;;;;;5055219;28;20194;-73
2023/07/05 22:39:58;;;;;;;5.22;2.97;;;20.70;90.40;;;;;;5057711;28;20195;-72
2023/07/05 22:42:24;;;;;;;2.17;1.60;;;20.60;90.70;;;;;;5071835;28;20187;-72
2023/07/05 22:44:50;;;;;;;4.38;2.17;;;;;;;;;;5071279;28;20179;-73
2023/07/05 22:47:16;;;;;;;6.07;3.30;;;20.60;91.00;;;;;;5069524;28;20175;-73
2023/07/05 22:49:42;;;;;;;7.13;5.18;;;20.40;92.60;;;;;;5066609;28;20610;-73
2023/07/05 22:52:08;;;;;;;14.10;12.75;;;20.20;93.60;;;;;;5074761;28;20183;-73
2023/07/05 22:54:34;;;;;;;28.27;25.33;;;;;;;;;;5079759;28;20224;-73
2023/07/05 22:57:04;;;;;;;75.03;49.25;;;;;;;;;;5073573;28;20187;-72
2023/07/05 22:59:29;;;;;;;119.68;59.22;;;20.00;95.00;;;;;;5075681;28;20210;-73
2023/07/05 23:02:00;;;;;;;95.85;38.70;;;20.10;93.90;;;;;;5070537;28;20182;-73
2023/07/05 23:04:26;;;;;;;3.38;2.28;;;20.10;93.80;;;;;;5056293;28;20179;-73
2023/07/05 23:06:52;;;;;;;2.72;2.20;;;;;;;;;;5070786;28;20194;-72
2023/07/05 23:09:19;;;;;;;3.50;2.58;;;;;;;;;;5079639;28;20679;-73
2023/07/05 23:11:45;;;;;;;16.92;12.02;;;;;;;;;;5066314;28;20236;-72
2023/07/05 23:14:12;;;;;;;160.15;69.40;;;;;;;;;;5070516;28;20217;-72
2023/07/05 23:16:38;;;;;;;169.77;69.10;;;;;;;;;;5072853;28;20209;-72
2023/07/05 23:19:04;;;;;;;6.78;3.25;;;20.20;93.60;;;;;;5071256;28;20210;-72
2023/07/05 23:21:30;;;;;;;4.28;2.47;;;20.20;94.90;;;;;;5071997;28;20181;-73
2023/07/05 23:23:56;;;;;;;6.03;3.30;;;20.10;94.10;;;;;;5070725;28;20595;-73
2023/07/05 23:26:22;;;;;;;2.25;2.05;;;20.10;93.80;;;;;;5082813;28;20185;-73
2023/07/05 23:28:51;;;;;;;3.88;3.08;;;20.10;93.60;;;;;;5060311;28;20183;-73
2023/07/05 23:31:35;;;;;;;4.65;4.25;;;;;;;;;;5056393;28;20179;-73
2023/07/05 23:34:03;;;;;;;3.17;1.85;;;;;;;;;;5068672;28;20182;-73
2023/07/05 23:36:29;;;;;;;53.72;42.70;;;;;;;;;;5055393;28;20243;-74
2023/07/05 23:38:56;;;;;;;102.63;53.72;;;20.10;93.60;;;;;;5074212;28;20222;-73
2023/07/05 23:41:26;;;;;;;29.95;27.42;;;;;;;;;;5074851;28;20249;-72
2023/07/05 23:43:52;;;;;;;51.97;40.85;;;20.20;93.40;;;;;;5053625;28;20656;-73
2023/07/05 23:46:19;;;;;;;72.68;30.20;;;;;;;;;;5080101;28;20188;-72
2023/07/05 23:48:45;;;;;;;2.65;2.42;;;;;;;;;;5063000;28;20191;-73
2023/07/05 23:51:11;;;;;;;2.22;1.95;;;;;;;;;;5076310;28;20205;-73
2023/07/05 23:53:38;;;;;;;3.47;2.13;;;20.10;94.20;;;;;;5072443;28;20171;-73
2023/07/05 23:56:05;;;;;;;3.20;2.28;;;20.10;94.40;;;;;;5071183;28;20187;-73
2023/07/05 23:58:31;;;;;;;3.17;2.13;;;20.10;94.10;;;;;;5070960;28;20588;-73
